sensor_id;sensor_type;location;lat;lon;timestamp;P1;durP1;ratioP1;P2;durP2;ratioP2
71610;SDS011;59459;51.172;6.682;2023-11-21T00:00:14;9.37;;;4.50;;
71610;SDS011;59459;51.172;6.682;2023-11-21T00:02:40;9.90;;;4.40;;
71610;SDS011;59459;51.172;6.682;2023-11-21T00:05:08;11.32;;;4.85;;
71610;SDS011;59459;51.172;6.682;2023-11-21T00:07:34;8.95;;;3.83;;
71610;SDS011;59459;51.172;6.682;2023-11-21T00:10:00;8.67;;;3.97;;
71610;SDS011;59459;51.172;6.682;2023-11-21T00:12:25;11.87;;;4.00;;
71610;SDS011;59459;51.172;6.682;2023-11-21T00:14:50;12.17;;;4.43;;
71610;SDS011;59459;51.172;6.682;2023-11-21T00:17:15;9.43;;;4.03;;
71610;SDS011;59459;51.172;6.682;2023-11-21T00:19:40;11.57;;;4.60;;
71610;SDS011;59459;51.172;6.682;2023-11-21T00:22:07;14.13;;;5.30;;
71610;SDS011;59459;51.172;6.682;2023-11-21T00:24:33;15.00;;;5.22;;
71610;SDS011;59459;51.172;6.682;2023-11-21T00:26:59;13.80;;;5.57;;
71610;SDS011;59459;51.172;6.682;2023-11-21T00:29:24;14.03;;;6.47;;
71610;SDS011;59459;51.172;6.682;2023-11-21T00:31:49;11.23;;;5.70;;
71610;SDS011;59459;51.172;6.682;2023-11-21T00:34:14;15.83;;;6.33;;
71610;SDS011;59459;51.172;6.682;2023-11-21T00:36:40;12.93;;;5.77;;
71610;SDS011;59459;51.172;6.682;2023-11-21T00:39:05;11.90;;;6.17;;
71610;SDS011;59459;51.172;6.682;2023-11-21T00:41:31;12.57;;;5.77;;
71610;SDS011;59459;51.172;6.682;2023-11-21T00:43:56;13.48;;;5.63;;
71610;SDS011;59459;51.172;6.682;2023-11-21T00:46:21;12.43;;;5.30;;
71610;SDS011;59459;51.172;6.682;2023-11-21T00:48:49;18.58;;;6.35;;
71610;SDS011;59459;51.172;6.682;2023-11-21T00:51:14;15.57;;;6.10;;
71610;SDS011;59459;51.172;6.682;2023-11-21T00:53:39;12.57;;;5.90;;
71610;SDS011;59459;51.172;6.682;2023-11-21T00:56:05;14.57;;;5.63;;
71610;SDS011;59459;51.172;6.682;2023-11-21T00:58:30;13.43;;;5.97;;
71610;SDS011;59459;51.172;6.682;2023-11-21T01:00:55;15.43;;;6.37;;
71610;SDS011;59459;51.172;6.682;2023-11-21T01:03:21;14.43;;;6.10;;
71610;SDS011;59459;51.172;6.682;2023-11-21T01:05:46;15.15;;;5.68;;
71610;SDS011;59459;51.172;6.682;2023-11-21T01:08:12;11.87;;;5.73;;
71610;SDS011;59459;51.172;6.682;2023-11-21T01:10:37;19.43;;;6.27;;
71610;SDS011;59459;51.172;6.682;2023-11-21T01:13:02;14.17;;;5.17;;
71610;SDS011;59459;51.172;6.682;2023-11-21T01:15:30;13.18;;;5.47;;
71610;SDS011;59459;51.172;6.682;2023-11-21T01:17:55;15.43;;;5.87;;
71610;SDS011;59459;51.172;6.682;2023-11-21T01:20:20;13.63;;;5.30;;
71610;SDS011;59459;51.172;6.682;2023-11-21T01:22:45;12.37;;;5.63;;
71610;SDS011;59459;51.172;6.682;2023-11-21T01:25:14;13.75;;;5.05;;
71610;SDS011;59459;51.172;6.682;2023-11-21T01:27:39;14.90;;;6.17;;
71610;SDS011;59459;51.172;6.682;2023-11-21T01:30:04;13.70;;;6.03;;
71610;SDS011;59459;51.172;6.682;2023-11-21T01:32:32;15.95;;;6.40;;
71610;SDS011;59459;51.172;6.682;2023-11-21T01:34:57;14.93;;;6.17;;
71610;SDS011;59459;51.172;6.682;2023-11-21T01:37:22;13.50;;;6.23;;
71610;SDS011;59459;51.172;6.682;2023-11-21T01:39:48;14.23;;;6.83;;
71610;SDS011;59459;51.172;6.682;2023-11-21T01:42:13;13.67;;;6.03;;
71610;SDS011;59459;51.172;6.682;2023-11-21T01:44:38;21.13;;;6.47;;
71610;SDS011;59459;51.172;6.682;2023-11-21T01:47:04;17.65;;;7.78;;
71610;SDS011;59459;51.172;6.682;2023-11-21T01:49:31;18.88;;;8.32;;
71610;SDS011;59459;51.172;6.682;2023-11-21T01:51:57;18.63;;;8.23;;
71610;SDS011;59459;51.172;6.682;2023-11-21T01:54:23;20.25;;;8.65;;
71610;SDS011;59459;51.172;6.682;2023-11-21T01:56:48;19.57;;;7.97;;
71610;SDS011;59459;51.172;6.682;2023-11-21T01:59:20;17.23;;;8.00;;
71610;SDS011;59459;51.172;6.682;2023-11-21T02:01:46;18.88;;;8.10;;
71610;SDS011;59459;51.172;6.682;2023-11-21T02:04:12;20.80;;;7.90;;
71610;SDS011;59459;51.172;6.682;2023-11-21T02:06:37;21.13;;;8.57;;
71610;SDS011;59459;51.172;6.682;2023-11-21T02:09:04;20.33;;;8.30;;
71610;SDS011;59459;51.172;6.682;2023-11-21T02:11:29;20.52;;;9.57;;
71610;SDS011;59459;51.172;6.682;2023-11-21T02:13:55;18.10;;;7.77;;
71610;SDS011;59459;51.172;6.682;2023-11-21T02:16:20;22.93;;;9.07;;
71610;SDS011;59459;51.172;6.682;2023-11-21T02:18:46;24.43;;;9.53;;
71610;SDS011;59459;51.172;6.682;2023-11-21T02:21:13;22.08;;;8.95;;
71610;SDS011;59459;51.172;6.682;2023-11-21T02:23:38;24.53;;;8.97;;
71610;SDS011;59459;51.172;6.682;2023-11-21T02:26:07;21.48;;;8.60;;
71610;SDS011;59459;51.172;6.682;2023-11-21T02:28:32;23.37;;;9.93;;
71610;SDS011;59459;51.172;6.682;2023-11-21T02:30:58;22.45;;;9.63;;
71610;SDS011;59459;51.172;6.682;2023-11-21T02:33:24;24.00;;;9.73;;
71610;SDS011;59459;51.172;6.682;2023-11-21T02:35:49;21.83;;;9.33;;
71610;SDS011;59459;51.172;6.682;2023-11-21T02:38:14;20.53;;;9.30;;
71610;SDS011;59459;51.172;6.682;2023-11-21T02:40:40;24.23;;;10.00;;
71610;SDS011;59459;51.172;6.682;2023-11-21T02:43:06;23.33;;;9.83;;
71610;SDS011;59459;51.172;6.682;2023-11-21T02:45:31;19.33;;;9.10;;
71610;SDS011;59459;51.172;6.682;2023-11-21T02:47:56;24.42;;;10.85;;
71610;SDS011;59459;51.172;6.682;2023-11-21T02:50:22;26.60;;;9.83;;
71610;SDS011;59459;51.172;6.682;2023-11-21T02:52:47;23.50;;;10.13;;
71610;SDS011;59459;51.172;6.682;2023-11-21T02:55:13;21.03;;;10.03;;
71610;SDS011;59459;51.172;6.682;2023-11-21T02:57:38;26.07;;;11.30;;
71610;SDS011;59459;51.172;6.682;2023-11-21T03:00:03;26.80;;;10.90;;
71610;SDS011;59459;51.172;6.682;2023-11-21T03:02:32;20.70;;;9.23;;
71610;SDS011;59459;51.172;6.682;2023-11-21T03:04:57;29.60;;;10.83;;
71610;SDS011;59459;51.172;6.682;2023-11-21T03:07:22;22.00;;;9.77;;
71610;SDS011;59459;51.172;6.682;2023-11-21T03:09:48;27.23;;;10.60;;
71610;SDS011;59459;51.172;6.682;2023-11-21T03:12:13;35.27;;;11.57;;
71610;SDS011;59459;51.172;6.682;2023-11-21T03:14:41;23.07;;;9.80;;
71610;SDS011;59459;51.172;6.682;2023-11-21T03:17:06;26.77;;;9.63;;
71610;SDS011;59459;51.172;6.682;2023-11-21T03:19:31;27.37;;;11.03;;
71610;SDS011;59459;51.172;6.682;2023-11-21T03:21:57;25.00;;;10.30;;
71610;SDS011;59459;51.172;6.682;2023-11-21T03:24:22;20.92;;;10.25;;
71610;SDS011;59459;51.172;6.682;2023-11-21T03:26:48;20.73;;;9.37;;
71610;SDS011;59459;51.172;6.682;2023-11-21T03:29:13;21.43;;;9.43;;
71610;SDS011;59459;51.172;6.682;2023-11-21T03:31:39;22.02;;;8.77;;
71610;SDS011;59459;51.172;6.682;2023-11-21T03:34:04;24.60;;;10.17;;
71610;SDS011;59459;51.172;6.682;2023-11-21T03:36:29;20.80;;;9.57;;
71610;SDS011;59459;51.172;6.682;2023-11-21T03:38:54;21.20;;;9.07;;
71610;SDS011;59459;51.172;6.682;2023-11-21T03:41:21;22.08;;;10.40;;
71610;SDS011;59459;51.172;6.682;2023-11-21T03:43:46;22.57;;;10.20;;
71610;SDS011;59459;51.172;6.682;2023-11-21T03:46:11;21.60;;;9.67;;
71610;SDS011;59459;51.172;6.682;2023-11-21T03:48:37;27.83;;;10.53;;
71610;SDS011;59459;51.172;6.682;2023-11-21T03:51:02;21.93;;;9.53;;
71610;SDS011;59459;51.172;6.682;2023-11-21T03:53:28;22.63;;;10.00;;
71610;SDS011;59459;51.172;6.682;2023-11-21T03:55:53;23.97;;;10.10;;
71610;SDS011;59459;51.172;6.682;2023-11-21T03:58:19;23.60;;;10.43;;
71610;SDS011;59459;51.172;6.682;2023-11-21T04:00:44;22.07;;;10.17;;
71610;SDS011;59459;51.172;6.682;2023-11-21T04:03:09;28.33;;;11.90;;
71610;SDS011;59459;51.172;6.682;2023-11-21T04:05:34;27.33;;;11.90;;
71610;SDS011;59459;51.172;6.682;2023-11-21T04:08:00;21.07;;;9.90;;
71610;SDS011;59459;51.172;6.682;2023-11-21T04:10:25;23.80;;;10.03;;
71610;SDS011;59459;51.172;6.682;2023-11-21T04:12:50;27.90;;;10.63;;
71610;SDS011;59459;51.172;6.682;2023-11-21T04:15:15;27.30;;;11.37;;
71610;SDS011;59459;51.172;6.682;2023-11-21T04:17:41;26.10;;;10.93;;
71610;SDS011;59459;51.172;6.682;2023-11-21T04:20:06;28.50;;;11.03;;
71610;SDS011;59459;51.172;6.682;2023-11-21T04:22:35;22.08;;;9.95;;
71610;SDS011;59459;51.172;6.682;2023-11-21T04:25:01;26.70;;;11.30;;
71610;SDS011;59459;51.172;6.682;2023-11-21T04:27:26;26.83;;;10.40;;
71610;SDS011;59459;51.172;6.682;2023-11-21T04:29:52;26.00;;;10.30;;
71610;SDS011;59459;51.172;6.682;2023-11-21T04:32:17;29.23;;;12.03;;
71610;SDS011;59459;51.172;6.682;2023-11-21T04:34:42;23.77;;;9.80;;
71610;SDS011;59459;51.172;6.682;2023-11-21T04:37:07;26.07;;;10.17;;
71610;SDS011;59459;51.172;6.682;2023-11-21T04:39:34;26.83;;;9.52;;
71610;SDS011;59459;51.172;6.682;2023-11-21T04:41:59;25.07;;;10.17;;
71610;SDS011;59459;51.172;6.682;2023-11-21T04:44:24;24.73;;;10.27;;
71610;SDS011;59459;51.172;6.682;2023-11-21T04:46:49;24.77;;;9.70;;
71610;SDS011;59459;51.172;6.682;2023-11-21T04:49:15;25.07;;;10.00;;
71610;SDS011;59459;51.172;6.682;2023-11-21T04:51:40;24.20;;;10.93;;
71610;SDS011;59459;51.172;6.682;2023-11-21T04:54:05;27.27;;;9.73;;
71610;SDS011;59459;51.172;6.682;2023-11-21T04:56:30;22.80;;;9.40;;
71610;SDS011;59459;51.172;6.682;2023-11-21T04:58:56;24.93;;;9.50;;
71610;SDS011;59459;51.172;6.682;2023-11-21T05:01:21;25.03;;;9.50;;
71610;SDS011;59459;51.172;6.682;2023-11-21T05:03:46;22.30;;;8.60;;
71610;SDS011;59459;51.172;6.682;2023-11-21T05:06:12;23.92;;;9.02;;
71610;SDS011;59459;51.172;6.682;2023-11-21T05:08:37;20.40;;;8.47;;
71610;SDS011;59459;51.172;6.682;2023-11-21T05:11:02;25.20;;;10.23;;
71610;SDS011;59459;51.172;6.682;2023-11-21T05:13:28;21.80;;;9.30;;
71610;SDS011;59459;51.172;6.682;2023-11-21T05:15:54;22.70;;;8.53;;
71610;SDS011;59459;51.172;6.682;2023-11-21T05:18:20;24.08;;;9.13;;
71610;SDS011;59459;51.172;6.682;2023-11-21T05:20:45;26.20;;;9.80;;
71610;SDS011;59459;51.172;6.682;2023-11-21T05:23:10;26.00;;;9.13;;
71610;SDS011;59459;51.172;6.682;2023-11-21T05:25:35;27.43;;;9.70;;
71610;SDS011;59459;51.172;6.682;2023-11-21T05:28:01;22.87;;;8.77;;
71610;SDS011;59459;51.172;6.682;2023-11-21T05:30:27;27.55;;;10.15;;
71610;SDS011;59459;51.172;6.682;2023-11-21T05:32:53;28.27;;;10.73;;
71610;SDS011;59459;51.172;6.682;2023-11-21T05:35:18;27.67;;;9.80;;
71610;SDS011;59459;51.172;6.682;2023-11-21T05:37:44;28.70;;;10.10;;
71610;SDS011;59459;51.172;6.682;2023-11-21T05:40:10;31.02;;;11.75;;
71610;SDS011;59459;51.172;6.682;2023-11-21T05:42:35;35.27;;;11.07;;
71610;SDS011;59459;51.172;6.682;2023-11-21T05:45:01;29.35;;;10.48;;
71610;SDS011;59459;51.172;6.682;2023-11-21T05:47:39;29.53;;;11.50;;
71610;SDS011;59459;51.172;6.682;2023-11-21T05:50:05;33.60;;;11.82;;
71610;SDS011;59459;51.172;6.682;2023-11-21T05:52:31;28.20;;;12.60;;
71610;SDS011;59459;51.172;6.682;2023-11-21T05:54:57;28.55;;;12.25;;
71610;SDS011;59459;51.172;6.682;2023-11-21T05:57:22;41.27;;;13.13;;
71610;SDS011;59459;51.172;6.682;2023-11-21T05:59:48;34.47;;;13.23;;
71610;SDS011;59459;51.172;6.682;2023-11-21T06:02:13;30.43;;;11.70;;
71610;SDS011;59459;51.172;6.682;2023-11-21T06:04:38;32.93;;;11.43;;
71610;SDS011;59459;51.172;6.682;2023-11-21T06:07:03;29.90;;;11.93;;
71610;SDS011;59459;51.172;6.682;2023-11-21T06:09:29;29.80;;;11.63;;
71610;SDS011;59459;51.172;6.682;2023-11-21T06:11:54;37.50;;;12.87;;
71610;SDS011;59459;51.172;6.682;2023-11-21T06:14:19;37.27;;;12.87;;
71610;SDS011;59459;51.172;6.682;2023-11-21T06:16:46;31.42;;;11.80;;
71610;SDS011;59459;51.172;6.682;2023-11-21T06:19:12;36.37;;;12.33;;
71610;SDS011;59459;51.172;6.682;2023-11-21T06:21:37;28.40;;;10.50;;
71610;SDS011;59459;51.172;6.682;2023-11-21T06:24:03;37.03;;;12.13;;
71610;SDS011;59459;51.172;6.682;2023-11-21T06:26:29;39.23;;;13.50;;
71610;SDS011;59459;51.172;6.682;2023-11-21T06:28:54;38.97;;;13.13;;
71610;SDS011;59459;51.172;6.682;2023-11-21T06:31:19;37.88;;;13.35;;
71610;SDS011;59459;51.172;6.682;2023-11-21T06:33:46;40.25;;;12.90;;
71610;SDS011;59459;51.172;6.682;2023-11-21T06:36:12;43.33;;;12.23;;
71610;SDS011;59459;51.172;6.682;2023-11-21T06:38:37;39.20;;;13.10;;
71610;SDS011;59459;51.172;6.682;2023-11-21T06:41:02;37.23;;;11.93;;
71610;SDS011;59459;51.172;6.682;2023-11-21T06:43:29;43.42;;;12.75;;
71610;SDS011;59459;51.172;6.682;2023-11-21T06:45:56;35.83;;;13.05;;
71610;SDS011;59459;51.172;6.682;2023-11-21T06:48:21;43.00;;;13.70;;
71610;SDS011;59459;51.172;6.682;2023-11-21T06:50:46;40.50;;;14.17;;
71610;SDS011;59459;51.172;6.682;2023-11-21T06:53:11;41.60;;;12.57;;
71610;SDS011;59459;51.172;6.682;2023-11-21T06:55:38;39.85;;;12.55;;
71610;SDS011;59459;51.172;6.682;2023-11-21T06:58:03;39.50;;;13.93;;
71610;SDS011;59459;51.172;6.682;2023-11-21T07:00:30;38.77;;;12.93;;
71610;SDS011;59459;51.172;6.682;2023-11-21T07:02:55;41.13;;;14.73;;
71610;SDS011;59459;51.172;6.682;2023-11-21T07:05:20;37.83;;;12.30;;
71610;SDS011;59459;51.172;6.682;2023-11-21T07:07:46;34.75;;;11.68;;
71610;SDS011;59459;51.172;6.682;2023-11-21T07:10:13;42.47;;;12.70;;
71610;SDS011;59459;51.172;6.682;2023-11-21T07:12:38;44.87;;;13.57;;
71610;SDS011;59459;51.172;6.682;2023-11-21T07:15:04;43.17;;;14.03;;
71610;SDS011;59459;51.172;6.682;2023-11-21T07:17:32;41.85;;;12.93;;
71610;SDS011;59459;51.172;6.682;2023-11-21T07:19:57;39.10;;;13.23;;
71610;SDS011;59459;51.172;6.682;2023-11-21T07:22:22;40.60;;;13.30;;
71610;SDS011;59459;51.172;6.682;2023-11-21T07:24:48;39.97;;;13.07;;
71610;SDS011;59459;51.172;6.682;2023-11-21T07:27:13;41.60;;;13.15;;
71610;SDS011;59459;51.172;6.682;2023-11-21T07:29:38;37.90;;;12.73;;
71610;SDS011;59459;51.172;6.682;2023-11-21T07:32:04;41.08;;;13.93;;
71610;SDS011;59459;51.172;6.682;2023-11-21T07:34:30;40.00;;;12.67;;
71610;SDS011;59459;51.172;6.682;2023-11-21T07:36:55;38.47;;;12.53;;
71610;SDS011;59459;51.172;6.682;2023-11-21T07:39:21;39.20;;;13.03;;
71610;SDS011;59459;51.172;6.682;2023-11-21T07:41:46;40.93;;;12.43;;
71610;SDS011;59459;51.172;6.682;2023-11-21T07:44:13;38.30;;;12.98;;
71610;SDS011;59459;51.172;6.682;2023-11-21T07:46:38;43.73;;;13.83;;
71610;SDS011;59459;51.172;6.682;2023-11-21T07:49:05;47.42;;;14.07;;
71610;SDS011;59459;51.172;6.682;2023-11-21T07:51:30;38.20;;;13.53;;
71610;SDS011;59459;51.172;6.682;2023-11-21T07:53:55;42.90;;;14.07;;
71610;SDS011;59459;51.172;6.682;2023-11-21T07:56:21;46.83;;;14.57;;
71610;SDS011;59459;51.172;6.682;2023-11-21T07:58:46;44.87;;;15.07;;
71610;SDS011;59459;51.172;6.682;2023-11-21T08:01:11;48.93;;;14.53;;
71610;SDS011;59459;51.172;6.682;2023-11-21T08:03:37;49.43;;;14.47;;
71610;SDS011;59459;51.172;6.682;2023-11-21T08:06:02;45.23;;;13.93;;
71610;SDS011;59459;51.172;6.682;2023-11-21T08:08:30;40.65;;;14.20;;
71610;SDS011;59459;51.172;6.682;2023-11-21T08:10:57;47.83;;;15.27;;
71610;SDS011;59459;51.172;6.682;2023-11-21T08:13:25;46.30;;;15.30;;
71610;SDS011;59459;51.172;6.682;2023-11-21T08:15:53;47.33;;;15.07;;
71610;SDS011;59459;51.172;6.682;2023-11-21T08:18:18;56.83;;;15.13;;
71610;SDS011;59459;51.172;6.682;2023-11-21T08:20:44;47.97;;;13.73;;
71610;SDS011;59459;51.172;6.682;2023-11-21T08:23:12;50.73;;;14.73;;
71610;SDS011;59459;51.172;6.682;2023-11-21T08:25:38;52.13;;;17.13;;
71610;SDS011;59459;51.172;6.682;2023-11-21T08:28:03;45.47;;;14.37;;
71610;SDS011;59459;51.172;6.682;2023-11-21T08:30:30;43.35;;;13.77;;
71610;SDS011;59459;51.172;6.682;2023-11-21T08:32:55;48.47;;;13.77;;
71610;SDS011;59459;51.172;6.682;2023-11-21T08:35:23;42.25;;;12.23;;
71610;SDS011;59459;51.172;6.682;2023-11-21T08:37:48;52.73;;;13.63;;
71610;SDS011;59459;51.172;6.682;2023-11-21T08:40:16;53.35;;;15.13;;
71610;SDS011;59459;51.172;6.682;2023-11-21T08:42:42;41.78;;;13.63;;
71610;SDS011;59459;51.172;6.682;2023-11-21T08:45:07;51.27;;;14.30;;
71610;SDS011;59459;51.172;6.682;2023-11-21T08:47:33;41.97;;;13.32;;
71610;SDS011;59459;51.172;6.682;2023-11-21T08:49:59;50.58;;;14.05;;
71610;SDS011;59459;51.172;6.682;2023-11-21T08:52:24;41.87;;;13.30;;
71610;SDS011;59459;51.172;6.682;2023-11-21T08:54:50;47.73;;;13.27;;
71610;SDS011;59459;51.172;6.682;2023-11-21T08:57:24;43.53;;;12.97;;
71610;SDS011;59459;51.172;6.682;2023-11-21T08:59:49;45.20;;;13.65;;
71610;SDS011;59459;51.172;6.682;2023-11-21T09:02:20;40.55;;;12.88;;
71610;SDS011;59459;51.172;6.682;2023-11-21T09:04:45;49.47;;;13.63;;
71610;SDS011;59459;51.172;6.682;2023-11-21T09:07:10;49.00;;;14.63;;
71610;SDS011;59459;51.172;6.682;2023-11-21T09:09:35;47.33;;;13.90;;
71610;SDS011;59459;51.172;6.682;2023-11-21T09:12:01;49.27;;;12.83;;
71610;SDS011;59459;51.172;6.682;2023-11-21T09:14:26;60.13;;;14.80;;
71610;SDS011;59459;51.172;6.682;2023-11-21T09:16:52;46.37;;;14.97;;
71610;SDS011;59459;51.172;6.682;2023-11-21T09:19:17;51.83;;;14.37;;
71610;SDS011;59459;51.172;6.682;2023-11-21T09:21:42;49.07;;;15.63;;
71610;SDS011;59459;51.172;6.682;2023-11-21T09:24:07;50.03;;;13.93;;
71610;SDS011;59459;51.172;6.682;2023-11-21T09:26:34;47.03;;;14.37;;
71610;SDS011;59459;51.172;6.682;2023-11-21T09:28:59;44.75;;;14.63;;
71610;SDS011;59459;51.172;6.682;2023-11-21T09:31:24;47.43;;;14.93;;
71610;SDS011;59459;51.172;6.682;2023-11-21T09:33:50;50.40;;;16.13;;
71610;SDS011;59459;51.172;6.682;2023-11-21T09:36:15;52.17;;;14.83;;
71610;SDS011;59459;51.172;6.682;2023-11-21T09:38:40;47.13;;;14.97;;
71610;SDS011;59459;51.172;6.682;2023-11-21T09:41:07;47.35;;;14.45;;
71610;SDS011;59459;51.172;6.682;2023-11-21T09:43:37;51.38;;;15.30;;
71610;SDS011;59459;51.172;6.682;2023-11-21T09:46:03;45.17;;;13.97;;
71610;SDS011;59459;51.172;6.682;2023-11-21T09:48:31;50.63;;;15.45;;
71610;SDS011;59459;51.172;6.682;2023-11-21T09:50:57;49.85;;;14.43;;
71610;SDS011;59459;51.172;6.682;2023-11-21T09:53:23;50.78;;;14.52;;
71610;SDS011;59459;51.172;6.682;2023-11-21T09:55:51;50.85;;;13.52;;
71610;SDS011;59459;51.172;6.682;2023-11-21T09:58:17;44.23;;;13.30;;
71610;SDS011;59459;51.172;6.682;2023-11-21T10:00:44;41.75;;;12.63;;
71610;SDS011;59459;51.172;6.682;2023-11-21T10:03:10;42.60;;;13.68;;
71610;SDS011;59459;51.172;6.682;2023-11-21T10:05:36;40.95;;;13.13;;
71610;SDS011;59459;51.172;6.682;2023-11-21T10:08:03;43.40;;;12.87;;
71610;SDS011;59459;51.172;6.682;2023-11-21T10:10:29;40.95;;;12.85;;
71610;SDS011;59459;51.172;6.682;2023-11-21T10:12:57;39.43;;;11.73;;
71610;SDS011;59459;51.172;6.682;2023-11-21T10:15:25;29.83;;;11.18;;
71610;SDS011;59459;51.172;6.682;2023-11-21T10:17:50;36.00;;;10.93;;
71610;SDS011;59459;51.172;6.682;2023-11-21T10:20:18;42.03;;;12.23;;
71610;SDS011;59459;51.172;6.682;2023-11-21T10:22:44;40.38;;;11.75;;
71610;SDS011;59459;51.172;6.682;2023-11-21T10:25:10;33.10;;;11.97;;
71610;SDS011;59459;51.172;6.682;2023-11-21T10:27:38;34.43;;;11.80;;
71610;SDS011;59459;51.172;6.682;2023-11-21T10:30:04;35.55;;;13.27;;
71610;SDS011;59459;51.172;6.682;2023-11-21T10:32:30;36.83;;;10.93;;
71610;SDS011;59459;51.172;6.682;2023-11-21T10:34:58;40.50;;;11.67;;
71610;SDS011;59459;51.172;6.682;2023-11-21T10:37:25;35.47;;;12.20;;
71610;SDS011;59459;51.172;6.682;2023-11-21T10:39:55;35.58;;;11.55;;
71610;SDS011;59459;51.172;6.682;2023-11-21T10:42:21;36.08;;;10.32;;
71610;SDS011;59459;51.172;6.682;2023-11-21T10:44:49;33.80;;;11.23;;
71610;SDS011;59459;51.172;6.682;2023-11-21T10:47:14;26.17;;;10.63;;
71610;SDS011;59459;51.172;6.682;2023-11-21T10:49:40;32.13;;;10.60;;
71610;SDS011;59459;51.172;6.682;2023-11-21T10:52:05;31.60;;;9.97;;
71610;SDS011;59459;51.172;6.682;2023-11-21T10:54:31;39.47;;;11.47;;
71610;SDS011;59459;51.172;6.682;2023-11-21T10:56:57;33.50;;;11.17;;
71610;SDS011;59459;51.172;6.682;2023-11-21T10:59:22;28.90;;;11.23;;
71610;SDS011;59459;51.172;6.682;2023-11-21T11:01:50;29.33;;;10.10;;
71610;SDS011;59459;51.172;6.682;2023-11-21T11:04:17;32.67;;;10.30;;
71610;SDS011;59459;51.172;6.682;2023-11-21T11:06:43;27.38;;;9.63;;
71610;SDS011;59459;51.172;6.682;2023-11-21T11:09:12;27.47;;;9.13;;
71610;SDS011;59459;51.172;6.682;2023-11-21T11:11:39;28.98;;;9.50;;
71610;SDS011;59459;51.172;6.682;2023-11-21T11:14:06;31.67;;;10.18;;
71610;SDS011;59459;51.172;6.682;2023-11-21T11:16:31;30.90;;;10.47;;
71610;SDS011;59459;51.172;6.682;2023-11-21T11:18:57;29.55;;;10.55;;
71610;SDS011;59459;51.172;6.682;2023-11-21T11:26:32;34.70;;;10.23;;
71610;SDS011;59459;51.172;6.682;2023-11-21T11:29:19;29.75;;;10.23;;
71610;SDS011;59459;51.172;6.682;2023-11-21T11:31:51;28.30;;;10.48;;
71610;SDS011;59459;51.172;6.682;2023-11-21T11:36:54;32.13;;;10.00;;
71610;SDS011;59459;51.172;6.682;2023-11-21T11:42:00;31.90;;;11.38;;
71610;SDS011;59459;51.172;6.682;2023-11-21T11:47:19;29.07;;;10.43;;
71610;SDS011;59459;51.172;6.682;2023-11-21T11:50:04;30.60;;;10.00;;
71610;SDS011;59459;51.172;6.682;2023-11-21T11:52:37;33.28;;;10.98;;
71610;SDS011;59459;51.172;6.682;2023-11-21T11:55:05;31.58;;;10.25;;
71610;SDS011;59459;51.172;6.682;2023-11-21T11:57:31;31.40;;;10.57;;
71610;SDS011;59459;51.172;6.682;2023-11-21T12:00:07;27.30;;;9.53;;
71610;SDS011;59459;51.172;6.682;2023-11-21T12:02:35;27.85;;;10.73;;
71610;SDS011;59459;51.172;6.682;2023-11-21T12:05:00;32.75;;;10.30;;
71610;SDS011;59459;51.172;6.682;2023-11-21T12:07:38;33.70;;;10.20;;
71610;SDS011;59459;51.172;6.682;2023-11-21T12:10:04;27.00;;;9.77;;
71610;SDS011;59459;51.172;6.682;2023-11-21T12:12:30;29.02;;;10.57;;
71610;SDS011;59459;51.172;6.682;2023-11-21T12:14:57;32.37;;;9.50;;
71610;SDS011;59459;51.172;6.682;2023-11-21T12:17:23;25.00;;;9.65;;
71610;SDS011;59459;51.172;6.682;2023-11-21T12:19:49;32.00;;;10.27;;
71610;SDS011;59459;51.172;6.682;2023-11-21T12:22:17;35.42;;;11.52;;
71610;SDS011;59459;51.172;6.682;2023-11-21T12:24:43;29.05;;;10.13;;
71610;SDS011;59459;51.172;6.682;2023-11-21T12:27:09;29.17;;;10.17;;
71610;SDS011;59459;51.172;6.682;2023-11-21T12:29:34;29.97;;;10.13;;
71610;SDS011;59459;51.172;6.682;2023-11-21T12:31:59;30.27;;;10.07;;
71610;SDS011;59459;51.172;6.682;2023-11-21T12:34:24;22.70;;;9.23;;
71610;SDS011;59459;51.172;6.682;2023-11-21T12:36:50;29.03;;;9.80;;
71610;SDS011;59459;51.172;6.682;2023-11-21T12:39:16;33.55;;;11.00;;
71610;SDS011;59459;51.172;6.682;2023-11-21T12:41:42;25.75;;;10.20;;
71610;SDS011;59459;51.172;6.682;2023-11-21T12:44:11;32.83;;;11.20;;
71610;SDS011;59459;51.172;6.682;2023-11-21T12:46:40;32.85;;;10.13;;
71610;SDS011;59459;51.172;6.682;2023-11-21T12:49:05;27.87;;;9.37;;
71610;SDS011;59459;51.172;6.682;2023-11-21T12:51:30;29.73;;;10.83;;
71610;SDS011;59459;51.172;6.682;2023-11-21T12:53:56;30.90;;;10.88;;
71610;SDS011;59459;51.172;6.682;2023-11-21T12:56:23;34.15;;;11.15;;
71610;SDS011;59459;51.172;6.682;2023-11-21T12:58:48;31.53;;;10.43;;
71610;SDS011;59459;51.172;6.682;2023-11-21T13:01:15;32.65;;;11.02;;
71610;SDS011;59459;51.172;6.682;2023-11-21T13:03:45;35.57;;;11.57;;
71610;SDS011;59459;51.172;6.682;2023-11-21T13:06:13;36.28;;;12.68;;
71610;SDS011;59459;51.172;6.682;2023-11-21T13:08:38;28.00;;;10.82;;
71610;SDS011;59459;51.172;6.682;2023-11-21T13:11:04;33.87;;;12.60;;
71610;SDS011;59459;51.172;6.682;2023-11-21T13:13:30;35.65;;;12.10;;
71610;SDS011;59459;51.172;6.682;2023-11-21T13:15:57;35.10;;;11.13;;
71610;SDS011;59459;51.172;6.682;2023-11-21T13:18:25;30.30;;;12.88;;
71610;SDS011;59459;51.172;6.682;2023-11-21T13:20:54;30.52;;;11.32;;
71610;SDS011;59459;51.172;6.682;2023-11-21T13:23:20;32.00;;;11.43;;
71610;SDS011;59459;51.172;6.682;2023-11-21T13:25:45;31.13;;;10.23;;
71610;SDS011;59459;51.172;6.682;2023-11-21T13:28:12;36.55;;;12.48;;
71610;SDS011;59459;51.172;6.682;2023-11-21T13:30:37;35.77;;;11.67;;
71610;SDS011;59459;51.172;6.682;2023-11-21T13:33:05;32.53;;;10.90;;
71610;SDS011;59459;51.172;6.682;2023-11-21T13:35:36;37.75;;;11.82;;
71610;SDS011;59459;51.172;6.682;2023-11-21T13:38:09;33.95;;;10.93;;
71610;SDS011;59459;51.172;6.682;2023-11-21T13:40:35;32.88;;;12.10;;
71610;SDS011;59459;51.172;6.682;2023-11-21T13:43:08;28.85;;;10.95;;
71610;SDS011;59459;51.172;6.682;2023-11-21T13:45:35;31.53;;;10.57;;
71610;SDS011;59459;51.172;6.682;2023-11-21T13:48:01;24.73;;;9.32;;
71610;SDS011;59459;51.172;6.682;2023-11-21T13:50:27;35.13;;;11.17;;
71610;SDS011;59459;51.172;6.682;2023-11-21T13:52:58;29.60;;;10.93;;
71610;SDS011;59459;51.172;6.682;2023-11-21T13:55:24;34.70;;;11.23;;
71610;SDS011;59459;51.172;6.682;2023-11-21T13:57:50;29.30;;;10.75;;
71610;SDS011;59459;51.172;6.682;2023-11-21T14:00:17;28.45;;;9.15;;
71610;SDS011;59459;51.172;6.682;2023-11-21T14:03:00;25.53;;;9.37;;
71610;SDS011;59459;51.172;6.682;2023-11-21T14:05:28;27.10;;;10.03;;
71610;SDS011;59459;51.172;6.682;2023-11-21T14:07:55;22.67;;;9.05;;
71610;SDS011;59459;51.172;6.682;2023-11-21T14:10:21;28.95;;;9.63;;
71610;SDS011;59459;51.172;6.682;2023-11-21T14:12:49;28.05;;;9.48;;
71610;SDS011;59459;51.172;6.682;2023-11-21T14:15:14;29.47;;;10.47;;
71610;SDS011;59459;51.172;6.682;2023-11-21T14:17:43;31.92;;;10.07;;
71610;SDS011;59459;51.172;6.682;2023-11-21T14:20:09;32.27;;;9.37;;
71610;SDS011;59459;51.172;6.682;2023-11-21T14:22:40;31.10;;;11.15;;
71610;SDS011;59459;51.172;6.682;2023-11-21T14:25:05;25.80;;;9.90;;
71610;SDS011;59459;51.172;6.682;2023-11-21T14:27:31;31.87;;;9.90;;
71610;SDS011;59459;51.172;6.682;2023-11-21T14:29:57;34.80;;;10.55;;
71610;SDS011;59459;51.172;6.682;2023-11-21T14:32:23;40.10;;;12.60;;